sensor_id;sensor_type;location;lat;lon;timestamp;pressure;altitude;pressure_sealevel;temperature;humidity
61618;BME280;47518;51.776;9.370;2023-05-22T00:00:56;100073.88;;;19.27;66.44
61618;BME280;47518;51.776;9.370;2023-05-22T00:03:25;100083.94;;;19.33;66.30
61618;BME280;47518;51.776;9.370;2023-05-22T00:05:52;100079.75;;;19.42;65.54
61618;BME280;47518;51.776;9.370;2023-05-22T00:08:23;100079.03;;;19.46;65.43
61618;BME280;47518;51.776;9.370;2023-05-22T00:10:48;100071.47;;;19.42;65.60
61618;BME280;47518;51.776;9.370;2023-05-22T00:13:14;100074.72;;;19.39;65.18
61618;BME280;47518;51.776;9.370;2023-05-22T00:15:39;100077.22;;;19.40;65.17
61618;BME280;47518;51.776;9.370;2023-05-22T00:18:04;100071.97;;;19.39;63.63
61618;BME280;47518;51.776;9.370;2023-05-22T00:20:30;100074.38;;;19.47;63.07
61618;BME280;47518;51.776;9.370;2023-05-22T00:22:55;100062.53;;;19.58;63.35
61618;BME280;47518;51.776;9.370;2023-05-22T00:25:21;100072.19;;;19.72;63.44
61618;BME280;47518;51.776;9.370;2023-05-22T00:27:47;100061.28;;;19.66;63.19
61618;BME280;47518;51.776;9.370;2023-05-22T00:30:12;100074.47;;;19.75;62.13
61618;BME280;47518;51.776;9.370;2023-05-22T00:32:38;100069.09;;;19.80;62.46
61618;BME280;47518;51.776;9.370;2023-05-22T00:35:04;100063.34;;;19.70;63.60
61618;BME280;47518;51.776;9.370;2023-05-22T00:37:30;100078.56;;;19.61;64.37
61618;BME280;47518;51.776;9.370;2023-05-22T00:39:55;100078.19;;;19.22;66.12
61618;BME280;47518;51.776;9.370;2023-05-22T00:42:21;100077.59;;;19.32;66.33
61618;BME280;47518;51.776;9.370;2023-05-22T00:44:47;100078.00;;;18.82;67.57
61618;BME280;47518;51.776;9.370;2023-05-22T00:47:13;100060.56;;;18.88;67.78
61618;BME280;47518;51.776;9.370;2023-05-22T00:49:40;100083.69;;;18.99;67.57
61618;BME280;47518;51.776;9.370;2023-05-22T00:52:09;100072.41;;;18.89;67.57
61618;BME280;47518;51.776;9.370;2023-05-22T00:54:35;100081.66;;;18.34;70.02
61618;BME280;47518;51.776;9.370;2023-05-22T00:57:01;100082.75;;;18.33;70.76
61618;BME280;47518;51.776;9.370;2023-05-22T00:59:28;100084.72;;;18.26;71.04
61618;BME280;47518;51.776;9.370;2023-05-22T01:01:54;100069.72;;;18.41;70.06
61618;BME280;47518;51.776;9.370;2023-05-22T01:04:21;100070.38;;;18.54;69.93
61618;BME280;47518;51.776;9.370;2023-05-22T01:06:47;100074.00;;;18.36;70.53
61618;BME280;47518;51.776;9.370;2023-05-22T01:09:13;100082.19;;;17.95;71.57
61618;BME280;47518;51.776;9.370;2023-05-22T01:11:53;100076.47;;;17.96;71.97
61618;BME280;47518;51.776;9.370;2023-05-22T01:14:24;100072.00;;;18.14;71.32
61618;BME280;47518;51.776;9.370;2023-05-22T01:17:00;100061.31;;;18.05;71.42
61618;BME280;47518;51.776;9.370;2023-05-22T01:22:39;100063.56;;;18.27;71.61
61618;BME280;47518;51.776;9.370;2023-05-22T01:33:32;100055.72;;;17.57;74.30
61618;BME280;47518;51.776;9.370;2023-05-22T01:36:00;100059.59;;;17.74;73.91
61618;BME280;47518;51.776;9.370;2023-05-22T01:38:26;100061.47;;;17.56;73.71
61618;BME280;47518;51.776;9.370;2023-05-22T01:40:53;100058.16;;;17.47;74.76
61618;BME280;47518;51.776;9.370;2023-05-22T01:43:19;100055.22;;;17.48;74.46
61618;BME280;47518;51.776;9.370;2023-05-22T01:45:51;100049.44;;;17.32;75.32
61618;BME280;47518;51.776;9.370;2023-05-22T01:48:17;100052.66;;;17.29;74.81
61618;BME280;47518;51.776;9.370;2023-05-22T01:50:42;100045.41;;;17.16;75.67
61618;BME280;47518;51.776;9.370;2023-05-22T01:56:02;100039.81;;;17.04;76.18
61618;BME280;47518;51.776;9.370;2023-05-22T01:58:38;100037.16;;;17.16;76.55
61618;BME280;47518;51.776;9.370;2023-05-22T02:01:08;100039.06;;;17.15;76.33
61618;BME280;47518;51.776;9.370;2023-05-22T02:03:35;100035.88;;;16.94;77.70
61618;BME280;47518;51.776;9.370;2023-05-22T02:06:05;100039.16;;;16.77;78.13
61618;BME280;47518;51.776;9.370;2023-05-22T02:08:32;100034.75;;;16.76;78.59
61618;BME280;47518;51.776;9.370;2023-05-22T02:11:00;100032.56;;;16.85;77.73
61618;BME280;47518;51.776;9.370;2023-05-22T02:13:27;100037.72;;;16.75;78.06
61618;BME280;47518;51.776;9.370;2023-05-22T02:15:53;100028.81;;;16.48;79.22
61618;BME280;47518;51.776;9.370;2023-05-22T02:18:19;100030.88;;;16.52;79.19
61618;BME280;47518;51.776;9.370;2023-05-22T02:20:45;100025.28;;;16.66;77.95
61618;BME280;47518;51.776;9.370;2023-05-22T02:23:10;100028.88;;;16.66;78.75
61618;BME280;47518;51.776;9.370;2023-05-22T02:25:36;100022.63;;;16.59;78.79
61618;BME280;47518;51.776;9.370;2023-05-22T02:28:01;100017.97;;;16.28;79.86
61618;BME280;47518;51.776;9.370;2023-05-22T02:30:27;100022.13;;;16.05;81.11
61618;BME280;47518;51.776;9.370;2023-05-22T02:32:52;100017.25;;;16.08;81.25
61618;BME280;47518;51.776;9.370;2023-05-22T02:35:18;100015.41;;;16.01;81.17
61618;BME280;47518;51.776;9.370;2023-05-22T02:37:44;100023.41;;;15.96;81.28
61618;BME280;47518;51.776;9.370;2023-05-22T02:40:10;100016.09;;;15.84;82.45
61618;BME280;47518;51.776;9.370;2023-05-22T02:42:35;100020.50;;;15.98;81.95
61618;BME280;47518;51.776;9.370;2023-05-22T02:45:01;100022.34;;;15.97;81.68
61618;BME280;47518;51.776;9.370;2023-05-22T02:47:27;100018.78;;;15.97;80.85
61618;BME280;47518;51.776;9.370;2023-05-22T02:49:52;100022.81;;;15.94;81.18
61618;BME280;47518;51.776;9.370;2023-05-22T02:52:17;100013.28;;;16.03;81.44
61618;BME280;47518;51.776;9.370;2023-05-22T02:54:43;100016.88;;;15.97;81.10
61618;BME280;47518;51.776;9.370;2023-05-22T02:57:08;100017.38;;;15.88;81.57
61618;BME280;47518;51.776;9.370;2023-05-22T02:59:34;100012.78;;;15.75;81.37
61618;BME280;47518;51.776;9.370;2023-05-22T03:02:01;100015.50;;;15.82;81.26
61618;BME280;47518;51.776;9.370;2023-05-22T03:04:26;100016.25;;;16.02;80.54
61618;BME280;47518;51.776;9.370;2023-05-22T03:06:54;100017.44;;;16.13;80.21
61618;BME280;47518;51.776;9.370;2023-05-22T03:09:19;100017.31;;;16.01;80.54
61618;BME280;47518;51.776;9.370;2023-05-22T03:11:44;100013.28;;;15.97;80.98
61618;BME280;47518;51.776;9.370;2023-05-22T03:14:10;100018.09;;;16.08;80.85
61618;BME280;47518;51.776;9.370;2023-05-22T03:16:35;100013.66;;;16.07;80.46
61618;BME280;47518;51.776;9.370;2023-05-22T03:19:10;100019.63;;;15.97;80.74
61618;BME280;47518;51.776;9.370;2023-05-22T03:21:36;100016.25;;;15.95;81.19
61618;BME280;47518;51.776;9.370;2023-05-22T03:24:02;100025.03;;;15.59;82.32
61618;BME280;47518;51.776;9.370;2023-05-22T03:26:27;100020.53;;;15.85;81.28
61618;BME280;47518;51.776;9.370;2023-05-22T03:28:54;100019.66;;;15.91;81.41
61618;BME280;47518;51.776;9.370;2023-05-22T03:31:19;100021.63;;;15.77;81.69
61618;BME280;47518;51.776;9.370;2023-05-22T03:33:44;100019.34;;;15.67;82.97
61618;BME280;47518;51.776;9.370;2023-05-22T03:36:09;100017.63;;;15.73;81.67
61618;BME280;47518;51.776;9.370;2023-05-22T03:38:35;100023.81;;;15.48;82.84
61618;BME280;47518;51.776;9.370;2023-05-22T03:41:00;100022.75;;;15.50;82.81
61618;BME280;47518;51.776;9.370;2023-05-22T03:43:25;100015.56;;;15.62;82.05
61618;BME280;47518;51.776;9.370;2023-05-22T03:45:51;100025.09;;;15.46;83.45
61618;BME280;47518;51.776;9.370;2023-05-22T03:48:16;100017.69;;;15.60;82.37
61618;BME280;47518;51.776;9.370;2023-05-22T03:50:41;100014.50;;;15.69;81.87
61618;BME280;47518;51.776;9.370;2023-05-22T03:53:06;100024.19;;;15.59;82.92
61618;BME280;47518;51.776;9.370;2023-05-22T03:55:32;100016.41;;;15.62;82.37
61618;BME280;47518;51.776;9.370;2023-05-22T03:57:57;100015.09;;;15.71;82.29
61618;BME280;47518;51.776;9.370;2023-05-22T04:00:23;100024.00;;;15.60;83.09
61618;BME280;47518;51.776;9.370;2023-05-22T04:02:48;100019.16;;;15.62;82.58
61618;BME280;47518;51.776;9.370;2023-05-22T04:05:15;100020.63;;;15.65;82.42
61618;BME280;47518;51.776;9.370;2023-05-22T04:07:40;100021.69;;;15.64;82.54
61618;BME280;47518;51.776;9.370;2023-05-22T04:10:06;100025.28;;;15.64;82.93
61618;BME280;47518;51.776;9.370;2023-05-22T04:12:31;100023.28;;;15.85;81.71
61618;BME280;47518;51.776;9.370;2023-05-22T04:14:57;100022.72;;;15.69;82.44
61618;BME280;47518;51.776;9.370;2023-05-22T04:17:22;100016.56;;;15.81;81.90
61618;BME280;47518;51.776;9.370;2023-05-22T04:19:47;100027.22;;;15.95;81.94
61618;BME280;47518;51.776;9.370;2023-05-22T04:22:13;100026.81;;;15.98;81.48
61618;BME280;47518;51.776;9.370;2023-05-22T04:24:38;100029.56;;;15.98;81.60
61618;BME280;47518;51.776;9.370;2023-05-22T04:27:05;100027.81;;;16.11;81.29
61618;BME280;47518;51.776;9.370;2023-05-22T04:29:30;100030.22;;;16.25;81.09
61618;BME280;47518;51.776;9.370;2023-05-22T04:31:55;100036.84;;;16.43;79.58
61618;BME280;47518;51.776;9.370;2023-05-22T04:34:21;100036.66;;;16.44;80.14
61618;BME280;47518;51.776;9.370;2023-05-22T04:36:46;100033.03;;;16.50;80.67
61618;BME280;47518;51.776;9.370;2023-05-22T04:39:12;100038.63;;;16.62;79.98
61618;BME280;47518;51.776;9.370;2023-05-22T04:41:39;100031.72;;;16.53;80.64
61618;BME280;47518;51.776;9.370;2023-05-22T04:44:05;100034.94;;;16.50;79.53
61618;BME280;47518;51.776;9.370;2023-05-22T04:46:31;100035.66;;;16.70;79.03
61618;BME280;47518;51.776;9.370;2023-05-22T04:48:58;100037.41;;;16.58;79.33
61618;BME280;47518;51.776;9.370;2023-05-22T04:51:27;100034.94;;;16.50;79.97
61618;BME280;47518;51.776;9.370;2023-05-22T04:53:52;100035.66;;;16.63;79.48
61618;BME280;47518;51.776;9.370;2023-05-22T04:56:20;100041.66;;;16.85;79.06
61618;BME280;47518;51.776;9.370;2023-05-22T04:58:46;100040.13;;;16.89;78.29
61618;BME280;47518;51.776;9.370;2023-05-22T05:01:14;100039.13;;;16.84;79.48
61618;BME280;47518;51.776;9.370;2023-05-22T05:03:41;100033.03;;;16.82;80.35
61618;BME280;47518;51.776;9.370;2023-05-22T05:06:06;100025.13;;;16.92;79.49
61618;BME280;47518;51.776;9.370;2023-05-22T05:08:34;100031.72;;;16.84;80.00
61618;BME280;47518;51.776;9.370;2023-05-22T05:10:59;100026.44;;;17.08;79.58
61618;BME280;47518;51.776;9.370;2023-05-22T05:13:24;100021.19;;;17.06;79.02
61618;BME280;47518;51.776;9.370;2023-05-22T05:15:50;100026.44;;;17.08;79.49
61618;BME280;47518;51.776;9.370;2023-05-22T05:18:15;100026.06;;;17.04;79.09
61618;BME280;47518;51.776;9.370;2023-05-22T05:20:41;100023.94;;;17.25;78.97
61618;BME280;47518;51.776;9.370;2023-05-22T05:23:09;100022.81;;;17.32;79.54
61618;BME280;47518;51.776;9.370;2023-05-22T05:25:35;100022.66;;;17.45;78.62
61618;BME280;47518;51.776;9.370;2023-05-22T05:28:04;100024.88;;;17.55;78.75
61618;BME280;47518;51.776;9.370;2023-05-22T05:30:36;100021.38;;;17.30;78.30
61618;BME280;47518;51.776;9.370;2023-05-22T05:33:01;100028.41;;;17.26;78.96
61618;BME280;47518;51.776;9.370;2023-05-22T05:35:27;100029.41;;;17.49;77.91
61618;BME280;47518;51.776;9.370;2023-05-22T05:37:52;100023.88;;;17.68;78.22
61618;BME280;47518;51.776;9.370;2023-05-22T05:40:17;100036.09;;;17.35;79.16
61618;BME280;47518;51.776;9.370;2023-05-22T05:42:43;100033.72;;;17.57;78.78
61618;BME280;47518;51.776;9.370;2023-05-22T05:45:09;100030.63;;;17.90;78.25
61618;BME280;47518;51.776;9.370;2023-05-22T05:47:34;100026.97;;;17.78;79.73
61618;BME280;47518;51.776;9.370;2023-05-22T05:50:00;100026.88;;;17.66;78.76
61618;BME280;47518;51.776;9.370;2023-05-22T05:52:25;100036.00;;;17.85;77.92
61618;BME280;47518;51.776;9.370;2023-05-22T05:54:51;100032.75;;;18.06;77.85
61618;BME280;47518;51.776;9.370;2023-05-22T05:57:16;100043.59;;;18.01;77.55
61618;BME280;47518;51.776;9.370;2023-05-22T05:59:42;100040.41;;;18.16;76.19
61618;BME280;47518;51.776;9.370;2023-05-22T06:02:08;100040.88;;;18.31;75.53
61618;BME280;47518;51.776;9.370;2023-05-22T06:04:33;100037.09;;;18.56;75.03
61618;BME280;47518;51.776;9.370;2023-05-22T06:06:59;100033.28;;;18.57;75.63
61618;BME280;47518;51.776;9.370;2023-05-22T06:23:04;100037.31;;;19.08;74.25
61618;BME280;47518;51.776;9.370;2023-05-22T06:25:29;100039.47;;;19.29;74.67
61618;BME280;47518;51.776;9.370;2023-05-22T06:27:55;100030.13;;;19.42;74.07
61618;BME280;47518;51.776;9.370;2023-05-22T06:30:20;100035.03;;;19.63;72.61
61618;BME280;47518;51.776;9.370;2023-05-22T06:32:46;100033.81;;;19.83;73.82
61618;BME280;47518;51.776;9.370;2023-05-22T06:35:12;100030.59;;;20.02;72.08
61618;BME280;47518;51.776;9.370;2023-05-22T06:37:37;100026.00;;;20.20;68.90
61618;BME280;47518;51.776;9.370;2023-05-22T06:40:04;100026.81;;;20.49;68.22
61618;BME280;47518;51.776;9.370;2023-05-22T06:42:31;100031.16;;;20.73;69.39
61618;BME280;47518;51.776;9.370;2023-05-22T06:44:56;100021.94;;;21.01;68.24
61618;BME280;47518;51.776;9.370;2023-05-22T06:47:21;100029.47;;;21.06;65.56
61618;BME280;47518;51.776;9.370;2023-05-22T06:49:47;100025.94;;;21.44;64.79
61618;BME280;47518;51.776;9.370;2023-05-22T06:52:12;100034.00;;;21.29;64.91
61618;BME280;47518;51.776;9.370;2023-05-22T06:54:38;100035.53;;;21.58;64.11
61618;BME280;47518;51.776;9.370;2023-05-22T06:57:07;100028.22;;;21.91;62.66
61618;BME280;47518;51.776;9.370;2023-05-22T06:59:33;100028.72;;;21.88;61.14
61618;BME280;47518;51.776;9.370;2023-05-22T07:01:59;100031.09;;;22.23;60.48
61618;BME280;47518;51.776;9.370;2023-05-22T07:04:24;100026.88;;;22.42;59.20
61618;BME280;47518;51.776;9.370;2023-05-22T07:06:50;100026.34;;;22.45;59.38
61618;BME280;47518;51.776;9.370;2023-05-22T07:09:18;100029.22;;;22.55;58.62
61618;BME280;47518;51.776;9.370;2023-05-22T07:11:44;100029.47;;;22.54;57.81
61618;BME280;47518;51.776;9.370;2023-05-22T07:14:10;100028.47;;;22.65;58.47
61618;BME280;47518;51.776;9.370;2023-05-22T07:16:37;100027.34;;;22.88;57.70
61618;BME280;47518;51.776;9.370;2023-05-22T07:19:02;100027.72;;;23.02;57.06
61618;BME280;47518;51.776;9.370;2023-05-22T07:21:28;100032.16;;;23.03;55.81
61618;BME280;47518;51.776;9.370;2023-05-22T07:23:56;100031.09;;;23.09;55.19
61618;BME280;47518;51.776;9.370;2023-05-22T07:26:21;100034.81;;;23.24;55.62
61618;BME280;47518;51.776;9.370;2023-05-22T07:28:47;100036.53;;;23.31;55.77
61618;BME280;47518;51.776;9.370;2023-05-22T07:31:12;100036.06;;;23.44;55.07
61618;BME280;47518;51.776;9.370;2023-05-22T07:33:37;100020.25;;;23.49;55.21
61618;BME280;47518;51.776;9.370;2023-05-22T07:36:03;100025.13;;;23.64;55.74
61618;BME280;47518;51.776;9.370;2023-05-22T07:38:28;100016.31;;;23.82;53.93
61618;BME280;47518;51.776;9.370;2023-05-22T07:40:54;100018.56;;;23.91;54.10
61618;BME280;47518;51.776;9.370;2023-05-22T07:43:19;100011.44;;;24.10;53.78
61618;BME280;47518;51.776;9.370;2023-05-22T07:45:45;100012.81;;;24.12;54.08
61618;BME280;47518;51.776;9.370;2023-05-22T07:48:10;100017.22;;;24.03;54.31
61618;BME280;47518;51.776;9.370;2023-05-22T07:50:36;100015.59;;;24.17;54.48
61618;BME280;47518;51.776;9.370;2023-05-22T07:53:01;100016.19;;;24.20;52.72
61618;BME280;47518;51.776;9.370;2023-05-22T07:55:28;100013.19;;;24.31;52.49
61618;BME280;47518;51.776;9.370;2023-05-22T07:57:54;100012.66;;;24.44;52.63
61618;BME280;47518;51.776;9.370;2023-05-22T08:00:20;100007.41;;;24.84;53.22
61618;BME280;47518;51.776;9.370;2023-05-22T08:02:46;100009.34;;;25.09;52.79
61618;BME280;47518;51.776;9.370;2023-05-22T08:05:11;100015.47;;;24.80;52.26
61618;BME280;47518;51.776;9.370;2023-05-22T08:07:37;100011.19;;;24.27;50.96
61618;BME280;47518;51.776;9.370;2023-05-22T08:10:06;100017.38;;;24.44;51.80
61618;BME280;47518;51.776;9.370;2023-05-22T08:12:32;100015.44;;;24.55;52.46
61618;BME280;47518;51.776;9.370;2023-05-22T08:14:57;100020.66;;;24.31;51.49
61618;BME280;47518;51.776;9.370;2023-05-22T08:17:23;100021.84;;;23.77;52.25
61618;BME280;47518;51.776;9.370;2023-05-22T08:19:48;100019.03;;;23.67;52.67
61618;BME280;47518;51.776;9.370;2023-05-22T08:22:13;100014.03;;;23.69;52.91
61618;BME280;47518;51.776;9.370;2023-05-22T08:24:39;100018.00;;;23.89;53.26
61618;BME280;47518;51.776;9.370;2023-05-22T08:27:04;100019.91;;;23.83;52.01
61618;BME280;47518;51.776;9.370;2023-05-22T08:29:29;100012.22;;;24.05;54.39
61618;BME280;47518;51.776;9.370;2023-05-22T08:31:55;100011.72;;;24.13;54.72
61618;BME280;47518;51.776;9.370;2023-05-22T08:34:22;100011.44;;;24.15;53.18
61618;BME280;47518;51.776;9.370;2023-05-22T08:36:47;100007.63;;;24.31;52.79
61618;BME280;47518;51.776;9.370;2023-05-22T08:39:14;100006.41;;;24.07;51.19
61618;BME280;47518;51.776;9.370;2023-05-22T08:41:39;100012.94;;;24.58;50.90
61618;BME280;47518;51.776;9.370;2023-05-22T08:44:07;100009.16;;;24.02;51.14
61618;BME280;47518;51.776;9.370;2023-05-22T08:46:35;100012.38;;;24.61;50.66
61618;BME280;47518;51.776;9.370;2023-05-22T08:49:03;100009.91;;;24.90;48.94
61618;BME280;47518;51.776;9.370;2023-05-22T08:51:32;100006.84;;;25.07;48.82
61618;BME280;47518;51.776;9.370;2023-05-22T08:53:59;99997.66;;;24.86;52.15
61618;BME280;47518;51.776;9.370;2023-05-22T08:56:29;100001.00;;;24.73;48.87
61618;BME280;47518;51.776;9.370;2023-05-22T08:58:56;100003.47;;;24.34;49.92
61618;BME280;47518;51.776;9.370;2023-05-22T09:01:22;99999.88;;;24.69;47.99
61618;BME280;47518;51.776;9.370;2023-05-22T09:03:48;99997.09;;;24.74;51.61
61618;BME280;47518;51.776;9.370;2023-05-22T09:06:15;99998.50;;;24.66;48.85
61618;BME280;47518;51.776;9.370;2023-05-22T09:08:41;99993.50;;;24.84;51.24
61618;BME280;47518;51.776;9.370;2023-05-22T09:11:07;99999.06;;;24.79;48.81
61618;BME280;47518;51.776;9.370;2023-05-22T09:13:32;99995.72;;;24.61;48.70
61618;BME280;47518;51.776;9.370;2023-05-22T09:16:07;100001.25;;;24.87;48.38
61618;BME280;47518;51.776;9.370;2023-05-22T09:18:36;99999.03;;;24.63;48.07
61618;BME280;47518;51.776;9.370;2023-05-22T09:21:02;99998.22;;;25.09;48.48
61618;BME280;47518;51.776;9.370;2023-05-22T09:23:28;100001.00;;;24.83;47.35
61618;BME280;47518;51.776;9.370;2023-05-22T09:25:55;100001.00;;;25.19;48.08
61618;BME280;47518;51.776;9.370;2023-05-22T09:28:20;100000.41;;;25.32;47.32
61618;BME280;47518;51.776;9.370;2023-05-22T09:30:48;100000.09;;;25.44;47.51
61618;BME280;47518;51.776;9.370;2023-05-22T09:33:14;99997.13;;;24.89;47.03
61618;BME280;47518;51.776;9.370;2023-05-22T09:35:41;99996.28;;;24.79;48.39
61618;BME280;47518;51.776;9.370;2023-05-22T09:38:09;99996.53;;;25.23;46.90
61618;BME280;47518;51.776;9.370;2023-05-22T09:40:37;99987.03;;;25.49;48.78
61618;BME280;47518;51.776;9.370;2023-05-22T09:43:08;99993.38;;;25.65;46.95
61618;BME280;47518;51.776;9.370;2023-05-22T09:45:34;99988.38;;;25.57;46.28
61618;BME280;47518;51.776;9.370;2023-05-22T09:48:00;99987.28;;;25.53;46.15
61618;BME280;47518;51.776;9.370;2023-05-22T09:50:25;99990.31;;;25.56;47.48
61618;BME280;47518;51.776;9.370;2023-05-22T09:52:52;99991.47;;;25.50;47.70
61618;BME280;47518;51.776;9.370;2023-05-22T09:55:19;99993.91;;;25.77;45.34
61618;BME280;47518;51.776;9.370;2023-05-22T09:57:46;99992.00;;;25.57;45.68
61618;BME280;47518;51.776;9.370;2023-05-22T10:00:15;99995.78;;;25.92;44.71
61618;BME280;47518;51.776;9.370;2023-05-22T10:02:45;99987.72;;;25.96;44.95
61618;BME280;47518;51.776;9.370;2023-05-22T10:05:11;99989.47;;;25.66;45.15
61618;BME280;47518;51.776;9.370;2023-05-22T10:07:46;99996.41;;;25.79;46.19
61618;BME280;47518;51.776;9.370;2023-05-22T10:10:16;99999.78;;;25.71;46.53
61618;BME280;47518;51.776;9.370;2023-05-22T10:12:44;99985.00;;;25.75;47.58
61618;BME280;47518;51.776;9.370;2023-05-22T10:15:12;99983.69;;;25.42;47.12
61618;BME280;47518;51.776;9.370;2023-05-22T10:17:38;99989.25;;;25.47;49.36
61618;BME280;47518;51.776;9.370;2023-05-22T10:20:08;99985.88;;;25.55;51.77
61618;BME280;47518;51.776;9.370;2023-05-22T10:22:35;99988.34;;;25.77;51.63
61618;BME280;47518;51.776;9.370;2023-05-22T10:25:04;99982.34;;;26.09;48.58
61618;BME280;47518;51.776;9.370;2023-05-22T10:27:30;99977.78;;;26.29;45.80
61618;BME280;47518;51.776;9.370;2023-05-22T10:35:59;99973.88;;;27.03;45.71
61618;BME280;47518;51.776;9.370;2023-05-22T10:38:49;99965.50;;;27.56;44.03
61618;BME280;47518;51.776;9.370;2023-05-22T10:41:26;99966.56;;;27.07;42.44
61618;BME280;47518;51.776;9.370;2023-05-22T10:43:55;99962.81;;;27.46;41.90
61618;BME280;47518;51.776;9.370;2023-05-22T10:46:20;99961.91;;;27.50;41.63
61618;BME280;47518;51.776;9.370;2023-05-22T10:48:47;99953.47;;;27.31;41.05
61618;BME280;47518;51.776;9.370;2023-05-22T10:51:14;99959.53;;;26.46;42.52
61618;BME280;47518;51.776;9.370;2023-05-22T10:53:41;99951.25;;;26.36;43.62
61618;BME280;47518;51.776;9.370;2023-05-22T10:56:14;99951.41;;;26.55;43.95
61618;BME280;47518;51.776;9.370;2023-05-22T10:58:56;99954.16;;;26.89;43.16
61618;BME280;47518;51.776;9.370;2023-05-22T11:01:25;99947.72;;;27.23;41.32
61618;BME280;47518;51.776;9.370;2023-05-22T11:04:00;99950.72;;;27.98;40.41
61618;BME280;47518;51.776;9.370;2023-05-22T11:06:29;99942.97;;;28.33;42.06
61618;BME280;47518;51.776;9.370;2023-05-22T11:08:55;99943.66;;;28.76;39.68
61618;BME280;47518;51.776;9.370;2023-05-22T11:11:24;99936.31;;;29.40;39.19
61618;BME280;47518;51.776;9.370;2023-05-22T11:13:51;99942.81;;;30.54;37.32
61618;BME280;47518;51.776;9.370;2023-05-22T11:16:16;99944.88;;;31.38;35.58
61618;BME280;47518;51.776;9.370;2023-05-22T11:18:42;99937.47;;;30.66;34.93
61618;BME280;47518;51.776;9.370;2023-05-22T11:21:10;99942.47;;;30.69;34.66
61618;BME280;47518;51.776;9.370;2023-05-22T11:23:47;99938.03;;;30.99;34.17
61618;BME280;47518;51.776;9.370;2023-05-22T11:26:17;99941.94;;;31.52;33.46
61618;BME280;47518;51.776;9.370;2023-05-22T11:28:49;99936.19;;;30.95;34.94
61618;BME280;47518;51.776;9.370;2023-05-22T11:31:25;99936.91;;;30.78;34.83
61618;BME280;47518;51.776;9.370;2023-05-22T11:33:52;99933.63;;;31.07;33.83
61618;BME280;47518;51.776;9.370;2023-05-22T11:36:29;99935.56;;;31.29;33.82
61618;BME280;47518;51.776;9.370;2023-05-22T11:38:57;99931.84;;;30.08;34.06
61618;BME280;47518;51.776;9.370;2023-05-22T11:41:35;99920.09;;;30.19;34.45
61618;BME280;47518;51.776;9.370;2023-05-22T11:44:01;99925.88;;;29.73;34.50
61618;BME280;47518;51.776;9.370;2023-05-22T11:46:26;99922.53;;;29.99;35.34
61618;BME280;47518;51.776;9.370;2023-05-22T11:48:52;99922.56;;;28.51;35.88
61618;BME280;47518;51.776;9.370;2023-05-22T11:51:30;99913.06;;;28.14;37.07
61618;BME280;47518;51.776;9.370;2023-05-22T11:53:55;99915.84;;;28.52;37.82
61618;BME280;47518;51.776;9.370;2023-05-22T11:56:23;99913.09;;;28.47;39.30
61618;BME280;47518;51.776;9.370;2023-05-22T11:58:58;99908.28;;;28.34;39.62
61618;BME280;47518;51.776;9.370;2023-05-22T12:01:23;99901.97;;;28.28;40.14
61618;BME280;47518;51.776;9.370;2023-05-22T12:03:48;99903.16;;;28.41;40.09
61618;BME280;47518;51.776;9.370;2023-05-22T12:06:14;99902.25;;;28.27;38.28
61618;BME280;47518;51.776;9.370;2023-05-22T12:08:40;99900.81;;;28.48;39.61
61618;BME280;47518;51.776;9.370;2023-05-22T12:11:11;99887.53;;;27.83;39.17
61618;BME280;47518;51.776;9.370;2023-05-22T12:13:37;99889.84;;;27.76;39.75
61618;BME280;47518;51.776;9.370;2023-05-22T12:16:17;99887.91;;;28.33;38.51
61618;BME280;47518;51.776;9.370;2023-05-22T12:18:46;99890.84;;;28.74;38.68
61618;BME280;47518;51.776;9.370;2023-05-22T12:21:11;99897.78;;;28.44;39.26
61618;BME280;47518;51.776;9.370;2023-05-22T12:23:47;99890.19;;;28.96;39.50
61618;BME280;47518;51.776;9.370;2023-05-22T12:26:13;99885.72;;;29.23;37.69
61618;BME280;47518;51.776;9.370;2023-05-22T12:28:38;99893.72;;;29.29;38.47
61618;BME280;47518;51.776;9.370;2023-05-22T12:31:04;99888.63;;;28.01;38.74
61618;BME280;47518;51.776;9.370;2023-05-22T12:33:30;99887.44;;;28.59;39.19
61618;BME280;47518;51.776;9.370;2023-05-22T12:35:58;99887.63;;;28.81;37.71
61618;BME280;47518;51.776;9.370;2023-05-22T12:38:28;99884.38;;;29.07;37.33
61618;BME280;47518;51.776;9.370;2023-05-22T12:41:00;99884.78;;;28.67;39.16
61618;BME280;47518;51.776;9.370;2023-05-22T12:43:26;99893.50;;;28.66;40.61
61618;BME280;47518;51.776;9.370;2023-05-22T12:45:54;99892.53;;;28.57;39.63
61618;BME280;47518;51.776;9.370;2023-05-22T12:48:19;99894.84;;;28.36;44.32
61618;BME280;47518;51.776;9.370;2023-05-22T12:50:45;99892.28;;;27.59;43.28
61618;BME280;47518;51.776;9.370;2023-05-22T12:53:23;99889.88;;;27.95;42.10
61618;BME280;47518;51.776;9.370;2023-05-22T12:55:48;99883.94;;;27.78;39.50
61618;BME280;47518;51.776;9.370;2023-05-22T12:58:16;99885.72;;;27.93;40.36
61618;BME280;47518;51.776;9.370;2023-05-22T13:00:41;99886.38;;;27.84;40.01
61618;BME280;47518;51.776;9.370;2023-05-22T13:03:07;99881.47;;;27.95;41.66
61618;BME280;47518;51.776;9.370;2023-05-22T13:05:32;99881.13;;;28.02;38.90
61618;BME280;47518;51.776;9.370;2023-05-22T13:07:58;99883.41;;;27.57;38.48
61618;BME280;47518;51.776;9.370;2023-05-22T13:10:23;99880.88;;;28.17;37.43
61618;BME280;47518;51.776;9.370;2023-05-22T13:12:48;99871.09;;;28.52;36.13
61618;BME280;47518;51.776;9.370;2023-05-22T13:15:18;99878.81;;;28.74;35.85
61618;BME280;47518;51.776;9.370;2023-05-22T13:17:43;99870.66;;;28.45;37.98
61618;BME280;47518;51.776;9.370;2023-05-22T13:20:10;99873.25;;;27.85;38.80
61618;BME280;47518;51.776;9.370;2023-05-22T13:22:35;99866.97;;;27.74;39.46
61618;BME280;47518;51.776;9.370;2023-05-22T13:25:02;99870.44;;;27.85;38.72